Cox Field
KPRX : now visible

Airfield :











YOU CAN JOIN US ON...

 
LOGIN :

Register | Disclaimer

   EN    FR    IT 

 









Legend :    VFR   Marginal VFR   IFR   Intensive IFR   Very Intensive IFR
Visi :
Ceiling :
>= 8 km
>= 3000ft
5 to 8 km
1000 to 3000 ft
1500m to 5 km
500 to 1000 ft
800 to 1500m
200 to 500 ft
< 800m
< 200 ft
Symbols :   Thunderstorms  Fog  Heavy snow  Heavy precipitations  Wind > 20 kt






- Airport Elevation : 547 ft


KPRX - Cox Field

CURRENT METAR :
  • 110356Z AUTO 07013G17KT 10SM OVC008 13/12 A3007 RMK AO2 SLP198 T01280122

EXPIRED METARs :
  • 110332Z AUTO 08013KT 10SM OVC006 13/12 A3004 RMK AO2 LTG DSNT W CIG 003V009
  • 110256Z AUTO 08007KT 10SM BKN004 BKN009 OVC012 13/13 A3006 RMK AO2 LTG DSNT NE AND E TSE41RAE23 CIG 003V007 SLP194 P0010 60012 T01280128 50015
  • 110247Z AUTO 09008KT 10SM BKN006 OVC012 13/13 A3006 RMK AO2 LTG DSNT NE AND E TSE41RAE23 CIG 003V009 P0010
  • 110156Z AUTO 11004KT 6SM VCTS RA BR OVC007 13/12 A3007 RMK AO2 LTG DSNT ALQDS TSB0059E24B52RAB52 PRESRR SLP199 P0002 T01330122
  • 110130Z AUTO 06011KT 10SM OVC009 13/12 A3003 RMK AO2 LTG DSNT ALQDS TSB0059E24

TAF N/A
KZFW FIR / North America



MET'MAP, your aeronautical weather chart ! - Copyright ORBIFLY December 2007 - Disclaimer

ORBIFLY MET'MAP TEAM :

Programming & Development : Alexandra Zaïnal
Concept & original design : Baudouin d'Aumeries
Assistance for programming : Marc-Olivier Méhu
Technical & hardware support : Manuel Goepfert

Contact : metmap@orbifly.com




SOURCES & CREDITS :

   NOAA       Earth
Advisory